createdAt,value
2023-02-02T00:01:49.797Z,2.05
2023-02-02T00:04:51.477Z,1.99
2023-02-02T00:07:53.230Z,1.91
2023-02-02T00:10:54.908Z,1.80
2023-02-02T00:13:56.810Z,1.79
2023-02-02T00:16:58.596Z,1.79
2023-02-02T00:20:00.318Z,1.84
2023-02-02T00:23:02.948Z,1.86
2023-02-02T00:26:04.797Z,1.93
2023-02-02T00:29:08.132Z,1.97
2023-02-02T00:32:09.833Z,2.17
2023-02-02T00:35:11.501Z,2.27
2023-02-02T00:38:13.188Z,2.49
2023-02-02T00:41:15.144Z,2.44
2023-02-02T00:44:35.712Z,2.55
2023-02-02T00:47:37.356Z,2.60
2023-02-02T00:50:39.267Z,2.65
2023-02-02T00:53:41.047Z,2.63
2023-02-02T00:56:42.886Z,2.73
2023-02-02T00:59:44.640Z,2.71
2023-02-02T01:02:47.128Z,2.70
2023-02-02T01:05:50.299Z,2.70
2023-02-02T01:08:52.022Z,2.71
2023-02-02T01:11:53.848Z,2.65
2023-02-02T01:14:55.539Z,2.78
2023-02-02T01:17:57.946Z,2.74
2023-02-02T01:21:05.025Z,2.72
2023-02-02T01:24:07.057Z,2.66
2023-02-02T01:27:08.947Z,2.74
2023-02-02T01:30:11.346Z,2.69
2023-02-02T01:33:13.134Z,2.62
2023-02-02T01:36:17.816Z,2.63
2023-02-02T01:39:19.649Z,2.66
2023-02-02T01:42:23.424Z,2.74
2023-02-02T01:45:31.034Z,2.71
2023-02-02T01:48:34.795Z,2.76
2023-02-02T01:51:51.667Z,2.85
2023-02-02T01:55:00.100Z,2.98
2023-02-02T01:58:36.601Z,3.00
2023-02-02T02:01:38.315Z,2.96
2023-02-02T02:04:42.442Z,3.06
2023-02-02T02:07:45.827Z,3.05
2023-02-02T02:10:48.192Z,3.04
2023-02-02T02:14:09.990Z,3.01
2023-02-02T02:17:43.815Z,3.01
2023-02-02T02:21:33.354Z,2.95
2023-02-02T02:25:23.358Z,2.96
2023-02-02T02:28:51.253Z,2.93
2023-02-02T02:32:17.820Z,2.91
2023-02-02T02:35:37.788Z,2.85
2023-02-02T02:38:43.167Z,2.76
2023-02-02T02:41:52.954Z,2.76
2023-02-02T02:44:56.476Z,2.75
2023-02-02T02:47:58.488Z,2.71
2023-02-02T02:51:41.147Z,2.66
2023-02-02T02:54:49.901Z,2.65
2023-02-02T02:58:05.325Z,2.60
2023-02-02T03:01:31.244Z,2.57
2023-02-02T03:04:46.531Z,2.59
2023-02-02T03:07:56.832Z,2.53
2023-02-02T03:11:02.312Z,2.45
2023-02-02T03:14:04.622Z,2.33
2023-02-02T03:17:06.401Z,2.27
2023-02-02T03:20:09.130Z,2.26
2023-02-02T03:23:10.988Z,2.18
2023-02-02T03:26:12.758Z,2.14
2023-02-02T03:29:14.684Z,2.11
2023-02-02T03:32:16.491Z,2.08
2023-02-02T03:35:20.516Z,2.06
2023-02-02T03:38:22.281Z,2.03
2023-02-02T03:41:23.975Z,1.95
2023-02-02T03:44:25.649Z,1.96
2023-02-02T03:47:31.009Z,1.97
2023-02-02T03:50:33.074Z,1.97
2023-02-02T03:53:35.054Z,1.96
2023-02-02T03:56:36.802Z,1.95
2023-02-02T03:59:38.624Z,1.94
2023-02-02T04:02:40.335Z,1.95
2023-02-02T04:05:42.111Z,1.95
2023-02-02T04:08:43.847Z,1.94
2023-02-02T04:11:45.584Z,1.94
2023-02-02T04:14:47.354Z,1.95
2023-02-02T04:17:49.058Z,1.89
2023-02-02T04:20:50.753Z,1.91
2023-02-02T04:23:52.598Z,1.89
2023-02-02T04:26:54.329Z,1.84
2023-02-02T04:29:56.047Z,1.84
2023-02-02T04:32:57.773Z,1.78
2023-02-02T04:35:59.466Z,1.76
2023-02-02T04:39:01.187Z,1.73
2023-02-02T04:42:03.413Z,1.70
2023-02-02T04:45:05.639Z,1.64
2023-02-02T04:48:08.996Z,1.62
2023-02-02T04:51:14.353Z,1.64
2023-02-02T04:54:17.214Z,1.57
2023-02-02T04:57:18.887Z,1.49
2023-02-02T05:00:21.067Z,1.53
2023-02-02T05:03:22.859Z,1.50
2023-02-02T05:06:24.818Z,1.45
2023-02-02T05:09:26.517Z,1.35
2023-02-02T05:12:28.304Z,1.28
2023-02-02T05:15:30.017Z,1.26
2023-02-02T05:18:31.800Z,1.23
2023-02-02T05:21:33.560Z,1.17
2023-02-02T05:24:35.392Z,1.14
2023-02-02T05:27:37.075Z,1.11
2023-02-02T05:30:40.428Z,1.05
2023-02-02T05:33:42.800Z,1.00
2023-02-02T05:36:44.560Z,0.99
2023-02-02T05:39:46.362Z,0.95
2023-02-02T05:42:49.517Z,0.93
2023-02-02T05:45:52.445Z,0.90
2023-02-02T05:48:54.280Z,0.90
2023-02-02T05:51:58.302Z,0.87
2023-02-02T05:55:01.234Z,0.83
2023-02-02T05:58:02.987Z,0.74
2023-02-02T06:01:04.899Z,0.71
2023-02-02T06:04:06.773Z,0.72
2023-02-02T06:07:08.516Z,0.74
2023-02-02T06:10:11.605Z,0.71
2023-02-02T06:13:13.423Z,0.71
2023-02-02T06:16:15.434Z,0.67
2023-02-02T06:19:19.396Z,0.69
2023-02-02T06:22:23.144Z,0.64
2023-02-02T06:25:25.212Z,0.63
2023-02-02T06:28:27.162Z,0.63
2023-02-02T06:31:29.984Z,0.76
2023-02-02T06:34:31.739Z,0.70
2023-02-02T06:37:34.533Z,0.79
2023-02-02T06:40:37.258Z,0.80
2023-02-02T06:43:38.999Z,0.82
2023-02-02T06:46:41.014Z,0.84
2023-02-02T06:49:43.686Z,0.90
2023-02-02T06:52:49.743Z,0.98
2023-02-02T06:56:01.971Z,0.96
2023-02-02T06:59:03.711Z,1.04
2023-02-02T07:02:05.686Z,1.09
2023-02-02T07:05:07.520Z,1.20
2023-02-02T07:08:09.479Z,1.48
2023-02-02T07:11:15.255Z,1.44
2023-02-02T07:14:18.149Z,1.50
2023-02-02T07:17:20.143Z,1.80
2023-02-02T07:20:22.848Z,1.89
2023-02-02T07:23:24.582Z,1.98
2023-02-02T07:26:27.728Z,2.52
2023-02-02T07:29:29.520Z,2.98
2023-02-02T07:32:32.277Z,3.71
2023-02-02T07:35:35.159Z,5.08
2023-02-02T07:38:37.245Z,5.95
2023-02-02T07:41:39.443Z,5.95
2023-02-02T07:44:41.198Z,6.18
2023-02-02T07:47:42.917Z,7.00
2023-02-02T07:50:49.494Z,7.72
2023-02-02T07:53:53.488Z,8.47
2023-02-02T07:56:56.393Z,8.78
2023-02-02T07:59:58.082Z,7.73
2023-02-02T08:02:59.902Z,9.03
2023-02-02T08:06:08.156Z,9.71
2023-02-02T08:09:10.308Z,6.62
2023-02-02T08:12:12.001Z,4.83
2023-02-02T08:15:13.767Z,4.12
2023-02-02T08:18:17.084Z,3.89
2023-02-02T08:21:19.830Z,3.66
2023-02-02T08:24:21.660Z,3.50
2023-02-02T08:27:23.408Z,3.43
2023-02-02T08:30:25.784Z,3.43
2023-02-02T08:33:27.563Z,3.46
2023-02-02T08:36:30.592Z,3.68
2023-02-02T08:39:32.285Z,3.75
2023-02-02T08:42:34.041Z,3.86
2023-02-02T08:46:04.371Z,4.35
2023-02-02T08:48:59.277Z,7.97
2023-02-02T08:52:00.992Z,10.62
2023-02-02T08:55:02.812Z,10.89
2023-02-02T08:58:05.358Z,11.49
2023-02-02T09:01:11.151Z,11.77
2023-02-02T09:04:18.783Z,11.59
2023-02-02T09:07:21.300Z,11.62
2023-02-02T09:10:23.287Z,12.30
2023-02-02T09:13:25.064Z,11.82
2023-02-02T09:16:27.938Z,12.59
2023-02-02T09:19:30.324Z,11.44
2023-02-02T09:22:32.720Z,11.96
2023-02-02T09:25:34.477Z,11.53
2023-02-02T09:28:38.286Z,11.14
2023-02-02T09:31:41.205Z,11.72
2023-02-02T09:34:44.161Z,9.98
2023-02-02T09:37:45.978Z,9.45
2023-02-02T09:40:47.767Z,8.37
2023-02-02T09:44:16.446Z,8.28
2023-02-02T09:47:42.492Z,7.70
2023-02-02T09:50:59.787Z,7.65
2023-02-02T09:54:17.888Z,7.60
2023-02-02T09:57:22.721Z,7.70
2023-02-02T10:00:37.758Z,7.32
2023-02-02T10:04:02.491Z,6.90
2023-02-02T10:07:14.188Z,6.70
2023-02-02T10:10:27.318Z,6.43
2023-02-02T10:13:37.874Z,6.34
2023-02-02T10:16:42.092Z,6.52
2023-02-02T10:19:44.591Z,6.43
2023-02-02T10:22:48.642Z,6.47
2023-02-02T10:26:01.316Z,6.37
2023-02-02T10:29:18.832Z,6.36
2023-02-02T10:32:34.906Z,5.92
2023-02-02T10:35:50.657Z,6.02
2023-02-02T10:39:14.264Z,5.64
2023-02-02T10:42:34.675Z,5.68
2023-02-02T10:45:39.212Z,5.67
2023-02-02T10:48:43.473Z,5.76
2023-02-02T10:52:11.228Z,6.16
2023-02-02T10:55:22.667Z,5.98
2023-02-02T10:58:32.299Z,5.84
2023-02-02T11:01:34.129Z,5.84
2023-02-02T11:04:54.676Z,5.63
2023-02-02T11:07:57.010Z,5.80
2023-02-02T11:11:08.455Z,6.03
2023-02-02T11:14:10.083Z,6.21
2023-02-02T11:17:21.451Z,6.23
2023-02-02T11:20:38.865Z,6.25
2023-02-02T11:23:40.924Z,6.35
2023-02-02T11:26:45.218Z,6.47
2023-02-02T11:29:52.978Z,6.63
2023-02-02T11:32:55.891Z,6.50
2023-02-02T11:36:03.947Z,6.50
2023-02-02T11:39:20.094Z,6.30
2023-02-02T11:42:27.304Z,6.15
2023-02-02T11:45:40.631Z,6.40
2023-02-02T11:48:50.351Z,6.38
2023-02-02T11:52:04.619Z,6.41
2023-02-02T11:55:14.775Z,6.55
2023-02-02T11:58:19.502Z,6.34
2023-02-02T12:01:34.024Z,6.32
2023-02-02T12:04:35.918Z,6.57
2023-02-02T12:07:37.846Z,6.56
2023-02-02T12:10:46.064Z,6.39
2023-02-02T12:14:12.116Z,6.29
2023-02-02T12:17:25.895Z,5.92
2023-02-02T12:20:47.300Z,5.81
2023-02-02T12:23:54.956Z,6.00
2023-02-02T12:27:02.060Z,6.05
2023-02-02T12:30:37.944Z,6.05
2023-02-02T12:33:52.457Z,6.12
2023-02-02T12:37:26.696Z,6.09
2023-02-02T12:40:43.635Z,6.01
2023-02-02T12:43:55.773Z,6.27
2023-02-02T12:47:16.195Z,6.60
2023-02-02T12:50:30.643Z,6.14
2023-02-02T12:54:33.647Z,6.07
2023-02-02T12:57:27.962Z,6.24
2023-02-02T13:00:54.926Z,6.18
2023-02-02T13:04:12.018Z,5.98
2023-02-02T13:10:54.056Z,5.77
2023-02-02T13:14:08.413Z,5.72
2023-02-02T13:17:21.597Z,5.55
2023-02-02T13:20:37.157Z,5.56
2023-02-02T13:23:51.574Z,5.73
2023-02-02T13:26:54.719Z,6.10
2023-02-02T13:30:11.302Z,6.45
2023-02-02T13:33:35.618Z,6.58
2023-02-02T13:36:42.105Z,6.75
2023-02-02T13:39:56.584Z,6.63
2023-02-02T13:43:06.413Z,6.74
2023-02-02T13:46:16.184Z,6.53
2023-02-02T13:49:24.134Z,6.34
2023-02-02T13:53:03.258Z,5.89
2023-02-02T13:56:40.500Z,5.55
2023-02-02T13:59:51.182Z,5.58
2023-02-02T14:02:59.577Z,5.62
2023-02-02T14:06:15.215Z,5.57
2023-02-02T14:09:19.060Z,5.74
2023-02-02T14:12:34.224Z,5.71
2023-02-02T14:15:41.476Z,5.80
2023-02-02T14:18:51.960Z,5.80
2023-02-02T14:22:08.902Z,5.43
2023-02-02T14:25:29.775Z,5.38
2023-02-02T14:28:49.332Z,5.31
2023-02-02T14:31:56.089Z,5.09
2023-02-02T14:34:58.264Z,4.98
2023-02-02T14:38:13.659Z,4.94
2023-02-02T14:42:19.078Z,4.85
2023-02-02T14:45:28.423Z,4.77
2023-02-02T14:48:30.320Z,4.67
2023-02-02T14:51:34.648Z,4.63
2023-02-02T14:54:40.873Z,4.52
2023-02-02T14:57:42.893Z,4.46
2023-02-02T15:00:56.670Z,4.49
2023-02-02T15:04:19.931Z,4.43
2023-02-02T15:07:24.460Z,4.38
2023-02-02T15:10:57.435Z,4.31
2023-02-02T15:14:07.339Z,4.22
2023-02-02T15:17:26.770Z,4.16
2023-02-02T15:20:45.480Z,4.20
2023-02-02T15:23:47.592Z,4.20
2023-02-02T15:26:50.305Z,4.10
2023-02-02T15:30:03.853Z,4.10
2023-02-02T15:33:18.169Z,4.09
2023-02-02T15:36:28.744Z,4.11
2023-02-02T15:39:33.882Z,3.95
2023-02-02T15:42:54.343Z,4.00
2023-02-02T15:46:04.365Z,4.02
2023-02-02T15:49:35.116Z,4.01
2023-02-02T15:52:46.923Z,4.01
2023-02-02T15:55:48.948Z,3.91
2023-02-02T15:58:59.555Z,3.91
2023-02-02T16:02:07.082Z,3.80
2023-02-02T16:05:24.433Z,3.73
2023-02-02T16:08:34.686Z,3.73
2023-02-02T16:11:42.271Z,3.69
2023-02-02T16:14:45.589Z,3.66
2023-02-02T16:18:00.632Z,3.52
2023-02-02T16:21:11.696Z,3.49
2023-02-02T16:24:22.046Z,3.46
2023-02-02T16:27:26.711Z,3.53
2023-02-02T16:30:35.711Z,3.56
2023-02-02T16:33:38.737Z,3.48
2023-02-02T16:36:40.449Z,3.45
2023-02-02T16:39:42.795Z,3.58
2023-02-02T16:42:44.577Z,3.46
2023-02-02T16:45:53.482Z,3.51
2023-02-02T16:49:01.652Z,3.35
2023-02-02T16:52:16.263Z,3.42
2023-02-02T16:55:19.888Z,3.37
2023-02-02T16:58:23.423Z,3.27
2023-02-02T17:01:57.959Z,3.36
2023-02-02T17:05:02.501Z,3.31
2023-02-02T17:08:07.286Z,3.28
2023-02-02T17:11:27.310Z,3.23
2023-02-02T17:14:33.288Z,3.30
2023-02-02T17:17:35.310Z,3.24
2023-02-02T17:20:37.386Z,3.19
2023-02-02T17:23:40.061Z,3.23
2023-02-02T17:26:42.713Z,3.27
2023-02-02T17:29:46.335Z,3.19
2023-02-02T17:32:48.340Z,3.18
2023-02-02T17:35:55.689Z,3.04
2023-02-02T17:38:59.122Z,3.05
2023-02-02T17:42:00.890Z,3.04
2023-02-02T17:45:03.598Z,3.02
2023-02-02T17:48:06.512Z,2.98
2023-02-02T17:51:16.027Z,2.95
2023-02-02T17:54:19.302Z,2.95
2023-02-02T17:57:21.282Z,2.98
2023-02-02T18:00:25.972Z,3.02
2023-02-02T18:03:31.351Z,2.96
2023-02-02T18:06:34.547Z,2.95
2023-02-02T18:09:36.506Z,2.96
2023-02-02T18:12:39.132Z,2.94
2023-02-02T18:15:41.288Z,2.90
2023-02-02T18:18:43.017Z,2.87
2023-02-02T18:21:46.429Z,2.91
2023-02-02T18:24:48.911Z,2.91
2023-02-02T18:27:52.347Z,2.84
2023-02-02T18:30:55.544Z,2.87
2023-02-02T18:33:57.650Z,2.91
2023-02-02T18:37:00.519Z,2.82
2023-02-02T18:40:04.716Z,2.75
2023-02-02T18:43:06.865Z,2.70
2023-02-02T18:46:13.617Z,2.80
2023-02-02T18:49:17.690Z,2.69
2023-02-02T18:52:19.939Z,2.68
2023-02-02T18:55:22.862Z,2.71
2023-02-02T18:58:27.646Z,2.66
2023-02-02T19:01:30.186Z,2.66
2023-02-02T19:04:32.479Z,2.64
2023-02-02T19:07:53.056Z,2.63
2023-02-02T19:11:03.293Z,2.57
2023-02-02T19:14:17.090Z,2.49
2023-02-02T19:17:24.638Z,2.45
2023-02-02T19:20:30.807Z,2.39
2023-02-02T19:23:41.714Z,2.31
2023-02-02T19:26:49.701Z,2.29
2023-02-02T19:29:56.462Z,2.22
2023-02-02T19:32:59.906Z,2.22
2023-02-02T19:36:02.166Z,2.19
2023-02-02T19:39:35.582Z,2.17
2023-02-02T19:42:43.946Z,2.23
2023-02-02T19:45:46.250Z,2.21
2023-02-02T19:48:50.722Z,2.20
2023-02-02T19:51:55.357Z,2.16
2023-02-02T19:54:57.581Z,2.12
2023-02-02T19:58:24.066Z,2.14
2023-02-02T20:01:34.957Z,2.09
2023-02-02T20:04:38.333Z,1.97
2023-02-02T20:07:40.818Z,1.97
2023-02-02T20:10:43.751Z,1.98
2023-02-02T20:13:48.541Z,1.96
2023-02-02T20:17:03.118Z,1.95
2023-02-02T20:20:27.440Z,1.95
2023-02-02T20:23:37.146Z,1.90
2023-02-02T20:26:39.506Z,1.79
2023-02-02T20:29:44.135Z,1.73
2023-02-02T20:33:03.099Z,1.70
2023-02-02T20:36:38.076Z,1.70
2023-02-02T20:40:07.781Z,1.75
2023-02-02T20:43:10.133Z,1.64
2023-02-02T20:46:15.357Z,1.58
2023-02-02T20:49:17.979Z,1.51
2023-02-02T20:52:23.585Z,1.51
2023-02-02T20:55:26.749Z,1.47
2023-02-02T20:58:28.686Z,1.47
2023-02-02T21:01:31.535Z,1.42
2023-02-02T21:04:34.193Z,1.34
2023-02-02T21:07:35.981Z,1.25
2023-02-02T21:10:38.067Z,1.19
2023-02-02T21:13:39.889Z,1.10
2023-02-02T21:16:42.010Z,1.02
2023-02-02T21:19:44.377Z,0.99
2023-02-02T21:22:46.852Z,1.00
2023-02-02T21:25:48.740Z,1.01
2023-02-02T21:28:50.550Z,1.01
2023-02-02T21:31:58.643Z,1.01
2023-02-02T21:35:00.485Z,0.99
2023-02-02T21:38:10.601Z,1.01
2023-02-02T21:41:15.031Z,1.07
2023-02-02T21:44:22.364Z,1.04
2023-02-02T21:47:40.426Z,1.11
2023-02-02T21:50:42.084Z,1.08
2023-02-02T21:53:43.865Z,1.16
2023-02-02T21:56:45.682Z,1.14
2023-02-02T21:59:55.987Z,1.09
2023-02-02T22:02:59.008Z,1.04
2023-02-02T22:06:24.678Z,1.06
2023-02-02T22:09:28.601Z,1.09
2023-02-02T22:12:30.728Z,0.98
2023-02-02T22:15:34.714Z,0.85
2023-02-02T22:18:37.417Z,0.82
2023-02-02T22:21:39.055Z,0.83
2023-02-02T22:24:41.152Z,0.80
2023-02-02T22:27:45.768Z,0.67
2023-02-02T22:30:48.096Z,0.63
2023-02-02T22:33:49.816Z,0.56
2023-02-02T22:36:51.487Z,0.55
2023-02-02T22:39:53.203Z,0.64
2023-02-02T22:42:57.474Z,0.72
2023-02-02T22:45:59.190Z,0.82
2023-02-02T22:49:00.893Z,0.79
2023-02-02T22:52:02.618Z,0.83
2023-02-02T22:55:04.551Z,0.82
2023-02-02T22:58:06.311Z,0.76
2023-02-02T23:01:09.400Z,0.77
2023-02-02T23:04:11.248Z,0.70
2023-02-02T23:07:13.102Z,0.68
2023-02-02T23:10:17.598Z,0.64
2023-02-02T23:13:20.254Z,0.69
2023-02-02T23:16:21.994Z,0.69
2023-02-02T23:19:23.713Z,0.66
2023-02-02T23:22:25.409Z,0.67
2023-02-02T23:25:27.909Z,0.64
2023-02-02T23:28:29.579Z,0.62
2023-02-02T23:31:31.442Z,0.58
2023-02-02T23:34:33.234Z,0.58
2023-02-02T23:37:36.031Z,0.60
2023-02-02T23:40:37.743Z,0.58
2023-02-02T23:43:42.507Z,0.62
2023-02-02T23:46:44.265Z,0.58
2023-02-02T23:49:46.244Z,0.56
2023-02-02T23:52:48.030Z,0.50
2023-02-02T23:55:49.753Z,0.41
2023-02-02T23:58:51.450Z,0.34
